sensor_id;sensor_type;location;lat;lon;timestamp;P1;durP1;ratioP1;P2;durP2;ratioP2
20431;SDS011;10375;49.136;10.366;2024-01-06T00:00:21;6.40;;;3.50;;
20431;SDS011;10375;49.136;10.366;2024-01-06T00:02:49;16.00;;;5.30;;
20431;SDS011;10375;49.136;10.366;2024-01-06T00:05:17;11.40;;;4.93;;
20431;SDS011;10375;49.136;10.366;2024-01-06T00:07:44;6.43;;;4.40;;
20431;SDS011;10375;49.136;10.366;2024-01-06T00:10:11;7.73;;;4.37;;
20431;SDS011;10375;49.136;10.366;2024-01-06T00:12:42;6.80;;;3.80;;
20431;SDS011;10375;49.136;10.366;2024-01-06T00:15:09;11.87;;;4.43;;
20431;SDS011;10375;49.136;10.366;2024-01-06T00:17:39;8.07;;;4.03;;
20431;SDS011;10375;49.136;10.366;2024-01-06T00:20:07;10.53;;;4.30;;
20431;SDS011;10375;49.136;10.366;2024-01-06T00:22:35;5.43;;;4.07;;
20431;SDS011;10375;49.136;10.366;2024-01-06T00:25:02;8.97;;;4.03;;
20431;SDS011;10375;49.136;10.366;2024-01-06T00:27:29;7.53;;;4.43;;
20431;SDS011;10375;49.136;10.366;2024-01-06T00:29:56;7.27;;;4.20;;
20431;SDS011;10375;49.136;10.366;2024-01-06T00:32:23;7.13;;;4.10;;
20431;SDS011;10375;49.136;10.366;2024-01-06T00:34:51;4.90;;;3.87;;
20431;SDS011;10375;49.136;10.366;2024-01-06T00:37:18;8.63;;;4.53;;
20431;SDS011;10375;49.136;10.366;2024-01-06T00:39:45;8.63;;;4.40;;
20431;SDS011;10375;49.136;10.366;2024-01-06T00:42:12;6.77;;;4.43;;
20431;SDS011;10375;49.136;10.366;2024-01-06T00:44:39;4.63;;;4.17;;
20431;SDS011;10375;49.136;10.366;2024-01-06T00:47:06;6.37;;;3.90;;
20431;SDS011;10375;49.136;10.366;2024-01-06T00:49:33;6.90;;;4.20;;
20431;SDS011;10375;49.136;10.366;2024-01-06T00:52:01;4.60;;;3.93;;
20431;SDS011;10375;49.136;10.366;2024-01-06T00:54:28;6.17;;;4.40;;
20431;SDS011;10375;49.136;10.366;2024-01-06T00:56:56;3.93;;;3.60;;
20431;SDS011;10375;49.136;10.366;2024-01-06T00:59:24;5.53;;;4.27;;
20431;SDS011;10375;49.136;10.366;2024-01-06T01:01:51;8.30;;;4.77;;
20431;SDS011;10375;49.136;10.366;2024-01-06T01:04:19;8.80;;;3.60;;
20431;SDS011;10375;49.136;10.366;2024-01-06T01:06:46;6.27;;;4.03;;
20431;SDS011;10375;49.136;10.366;2024-01-06T01:09:14;9.83;;;4.13;;
20431;SDS011;10375;49.136;10.366;2024-01-06T01:11:41;12.53;;;4.27;;
20431;SDS011;10375;49.136;10.366;2024-01-06T01:14:08;5.80;;;4.53;;
20431;SDS011;10375;49.136;10.366;2024-01-06T01:16:36;7.33;;;4.00;;
20431;SDS011;10375;49.136;10.366;2024-01-06T01:19:03;6.43;;;3.97;;
20431;SDS011;10375;49.136;10.366;2024-01-06T01:21:30;5.63;;;4.57;;
20431;SDS011;10375;49.136;10.366;2024-01-06T01:23:57;6.70;;;3.77;;
20431;SDS011;10375;49.136;10.366;2024-01-06T01:26:25;3.90;;;3.50;;
20431;SDS011;10375;49.136;10.366;2024-01-06T01:28:52;5.23;;;3.87;;
20431;SDS011;10375;49.136;10.366;2024-01-06T01:31:19;5.80;;;3.80;;
20431;SDS011;10375;49.136;10.366;2024-01-06T01:33:46;4.70;;;3.63;;
20431;SDS011;10375;49.136;10.366;2024-01-06T01:36:14;4.83;;;3.67;;
20431;SDS011;10375;49.136;10.366;2024-01-06T01:38:41;6.93;;;4.33;;
20431;SDS011;10375;49.136;10.366;2024-01-06T01:41:08;5.30;;;3.83;;
20431;SDS011;10375;49.136;10.366;2024-01-06T01:43:35;6.57;;;4.33;;
20431;SDS011;10375;49.136;10.366;2024-01-06T01:46:02;8.93;;;4.00;;
20431;SDS011;10375;49.136;10.366;2024-01-06T01:48:30;4.37;;;3.27;;
20431;SDS011;10375;49.136;10.366;2024-01-06T01:51:00;5.13;;;4.23;;
20431;SDS011;10375;49.136;10.366;2024-01-06T01:53:28;7.17;;;3.63;;
20431;SDS011;10375;49.136;10.366;2024-01-06T01:55:58;4.17;;;3.60;;
20431;SDS011;10375;49.136;10.366;2024-01-06T01:58:25;5.80;;;3.70;;
20431;SDS011;10375;49.136;10.366;2024-01-06T02:00:53;8.93;;;3.50;;
20431;SDS011;10375;49.136;10.366;2024-01-06T02:03:20;5.80;;;3.87;;
20431;SDS011;10375;49.136;10.366;2024-01-06T02:05:50;5.23;;;3.50;;
20431;SDS011;10375;49.136;10.366;2024-01-06T02:08:18;5.83;;;3.50;;
20431;SDS011;10375;49.136;10.366;2024-01-06T02:10:45;4.83;;;3.33;;
20431;SDS011;10375;49.136;10.366;2024-01-06T02:13:12;4.30;;;3.47;;
20431;SDS011;10375;49.136;10.366;2024-01-06T02:15:40;5.10;;;3.87;;
20431;SDS011;10375;49.136;10.366;2024-01-06T02:18:07;4.97;;;3.53;;
20431;SDS011;10375;49.136;10.366;2024-01-06T02:20:35;6.23;;;3.70;;
20431;SDS011;10375;49.136;10.366;2024-01-06T02:23:03;3.90;;;3.37;;
20431;SDS011;10375;49.136;10.366;2024-01-06T02:25:30;5.60;;;3.60;;
20431;SDS011;10375;49.136;10.366;2024-01-06T02:27:57;4.27;;;3.27;;
20431;SDS011;10375;49.136;10.366;2024-01-06T02:30:24;6.47;;;3.67;;
20431;SDS011;10375;49.136;10.366;2024-01-06T02:32:52;5.80;;;3.60;;
20431;SDS011;10375;49.136;10.366;2024-01-06T02:35:20;5.33;;;4.10;;
20431;SDS011;10375;49.136;10.366;2024-01-06T02:37:47;6.53;;;3.97;;
20431;SDS011;10375;49.136;10.366;2024-01-06T02:40:14;10.07;;;3.60;;
20431;SDS011;10375;49.136;10.366;2024-01-06T02:42:41;6.43;;;4.07;;
20431;SDS011;10375;49.136;10.366;2024-01-06T02:45:09;5.93;;;3.63;;
20431;SDS011;10375;49.136;10.366;2024-01-06T02:47:36;5.37;;;4.00;;
20431;SDS011;10375;49.136;10.366;2024-01-06T02:50:04;4.77;;;3.80;;
20431;SDS011;10375;49.136;10.366;2024-01-06T02:52:32;6.27;;;3.80;;
20431;SDS011;10375;49.136;10.366;2024-01-06T02:54:59;7.80;;;4.03;;
20431;SDS011;10375;49.136;10.366;2024-01-06T02:57:30;7.17;;;3.87;;
20431;SDS011;10375;49.136;10.366;2024-01-06T02:59:57;5.63;;;3.43;;
20431;SDS011;10375;49.136;10.366;2024-01-06T03:02:24;6.27;;;3.90;;
20431;SDS011;10375;49.136;10.366;2024-01-06T03:04:52;5.13;;;4.13;;
20431;SDS011;10375;49.136;10.366;2024-01-06T03:07:19;5.83;;;3.77;;
20431;SDS011;10375;49.136;10.366;2024-01-06T03:09:46;4.60;;;3.37;;
20431;SDS011;10375;49.136;10.366;2024-01-06T03:12:13;5.07;;;4.03;;
20431;SDS011;10375;49.136;10.366;2024-01-06T03:14:40;4.33;;;3.33;;
20431;SDS011;10375;49.136;10.366;2024-01-06T03:17:08;4.93;;;3.17;;
20431;SDS011;10375;49.136;10.366;2024-01-06T03:19:37;5.63;;;3.47;;
20431;SDS011;10375;49.136;10.366;2024-01-06T03:22:04;4.97;;;3.30;;
20431;SDS011;10375;49.136;10.366;2024-01-06T03:24:31;8.77;;;3.57;;
20431;SDS011;10375;49.136;10.366;2024-01-06T03:26:58;5.47;;;3.20;;
20431;SDS011;10375;49.136;10.366;2024-01-06T03:29:25;5.80;;;3.60;;
20431;SDS011;10375;49.136;10.366;2024-01-06T03:31:53;5.30;;;3.57;;
20431;SDS011;10375;49.136;10.366;2024-01-06T03:34:20;8.20;;;3.37;;
20431;SDS011;10375;49.136;10.366;2024-01-06T03:36:47;5.90;;;3.53;;
20431;SDS011;10375;49.136;10.366;2024-01-06T03:39:14;6.70;;;2.97;;
20431;SDS011;10375;49.136;10.366;2024-01-06T03:41:41;4.20;;;3.23;;
20431;SDS011;10375;49.136;10.366;2024-01-06T03:44:09;5.73;;;2.83;;
20431;SDS011;10375;49.136;10.366;2024-01-06T03:46:36;5.33;;;3.20;;
20431;SDS011;10375;49.136;10.366;2024-01-06T03:49:03;5.13;;;3.50;;
20431;SDS011;10375;49.136;10.366;2024-01-06T03:51:31;4.17;;;2.77;;
20431;SDS011;10375;49.136;10.366;2024-01-06T03:53:58;5.30;;;3.03;;
20431;SDS011;10375;49.136;10.366;2024-01-06T03:56:25;8.73;;;3.07;;
20431;SDS011;10375;49.136;10.366;2024-01-06T03:58:52;3.40;;;3.07;;
20431;SDS011;10375;49.136;10.366;2024-01-06T04:01:20;6.27;;;3.03;;
20431;SDS011;10375;49.136;10.366;2024-01-06T04:03:47;10.27;;;2.67;;
20431;SDS011;10375;49.136;10.366;2024-01-06T04:06:15;4.37;;;2.60;;
20431;SDS011;10375;49.136;10.366;2024-01-06T04:08:42;4.87;;;2.47;;
20431;SDS011;10375;49.136;10.366;2024-01-06T04:11:09;5.40;;;3.30;;
20431;SDS011;10375;49.136;10.366;2024-01-06T04:13:36;5.67;;;3.10;;
20431;SDS011;10375;49.136;10.366;2024-01-06T04:16:03;4.80;;;2.70;;
20431;SDS011;10375;49.136;10.366;2024-01-06T04:18:31;6.33;;;3.37;;
20431;SDS011;10375;49.136;10.366;2024-01-06T04:20:59;5.07;;;3.00;;
20431;SDS011;10375;49.136;10.366;2024-01-06T04:23:26;10.63;;;3.07;;
20431;SDS011;10375;49.136;10.366;2024-01-06T04:25:53;5.77;;;2.97;;
20431;SDS011;10375;49.136;10.366;2024-01-06T04:28:20;4.77;;;3.23;;
20431;SDS011;10375;49.136;10.366;2024-01-06T04:30:47;7.33;;;2.63;;
20431;SDS011;10375;49.136;10.366;2024-01-06T04:33:15;5.17;;;2.73;;
20431;SDS011;10375;49.136;10.366;2024-01-06T04:35:42;7.10;;;2.73;;
20431;SDS011;10375;49.136;10.366;2024-01-06T04:38:09;7.70;;;3.03;;
20431;SDS011;10375;49.136;10.366;2024-01-06T04:40:36;5.37;;;2.80;;
20431;SDS011;10375;49.136;10.366;2024-01-06T04:43:03;4.83;;;2.77;;
20431;SDS011;10375;49.136;10.366;2024-01-06T04:45:30;4.80;;;2.80;;
20431;SDS011;10375;49.136;10.366;2024-01-06T04:47:58;2.80;;;2.60;;
20431;SDS011;10375;49.136;10.366;2024-01-06T04:50:25;3.27;;;2.57;;
20431;SDS011;10375;49.136;10.366;2024-01-06T04:52:52;3.47;;;2.93;;
20431;SDS011;10375;49.136;10.366;2024-01-06T04:55:19;3.47;;;2.87;;
20431;SDS011;10375;49.136;10.366;2024-01-06T04:57:48;6.70;;;3.47;;
20431;SDS011;10375;49.136;10.366;2024-01-06T05:00:16;3.80;;;2.87;;
20431;SDS011;10375;49.136;10.366;2024-01-06T05:02:43;7.17;;;2.87;;
20431;SDS011;10375;49.136;10.366;2024-01-06T05:05:11;5.07;;;3.23;;
20431;SDS011;10375;49.136;10.366;2024-01-06T05:07:38;4.43;;;3.10;;
20431;SDS011;10375;49.136;10.366;2024-01-06T05:10:05;5.20;;;2.70;;
20431;SDS011;10375;49.136;10.366;2024-01-06T05:12:33;3.67;;;3.00;;
20431;SDS011;10375;49.136;10.366;2024-01-06T05:15:00;4.57;;;2.63;;
20431;SDS011;10375;49.136;10.366;2024-01-06T05:17:27;13.37;;;3.30;;
20431;SDS011;10375;49.136;10.366;2024-01-06T05:19:54;10.53;;;2.57;;
20431;SDS011;10375;49.136;10.366;2024-01-06T05:22:22;4.93;;;3.00;;
20431;SDS011;10375;49.136;10.366;2024-01-06T05:24:49;5.57;;;3.23;;
20431;SDS011;10375;49.136;10.366;2024-01-06T05:27:19;4.77;;;2.40;;
20431;SDS011;10375;49.136;10.366;2024-01-06T05:29:47;4.00;;;3.17;;
20431;SDS011;10375;49.136;10.366;2024-01-06T05:32:16;4.87;;;2.67;;
20431;SDS011;10375;49.136;10.366;2024-01-06T05:34:44;2.87;;;2.43;;
20431;SDS011;10375;49.136;10.366;2024-01-06T05:37:12;5.40;;;2.80;;
20431;SDS011;10375;49.136;10.366;2024-01-06T05:39:39;8.40;;;2.77;;
20431;SDS011;10375;49.136;10.366;2024-01-06T05:42:08;7.67;;;3.13;;
20431;SDS011;10375;49.136;10.366;2024-01-06T05:44:37;3.90;;;2.83;;
20431;SDS011;10375;49.136;10.366;2024-01-06T05:47:06;5.80;;;2.80;;
20431;SDS011;10375;49.136;10.366;2024-01-06T05:49:34;3.77;;;2.33;;
20431;SDS011;10375;49.136;10.366;2024-01-06T05:52:02;4.07;;;2.40;;
20431;SDS011;10375;49.136;10.366;2024-01-06T05:54:29;7.03;;;2.87;;
20431;SDS011;10375;49.136;10.366;2024-01-06T05:56:57;5.03;;;2.43;;
20431;SDS011;10375;49.136;10.366;2024-01-06T05:59:24;4.70;;;2.77;;
20431;SDS011;10375;49.136;10.366;2024-01-06T06:01:51;9.63;;;2.70;;
20431;SDS011;10375;49.136;10.366;2024-01-06T06:04:18;9.70;;;3.17;;
20431;SDS011;10375;49.136;10.366;2024-01-06T06:06:46;2.80;;;2.47;;
20431;SDS011;10375;49.136;10.366;2024-01-06T06:09:13;5.33;;;2.77;;
20431;SDS011;10375;49.136;10.366;2024-01-06T06:11:41;13.07;;;3.30;;
20431;SDS011;10375;49.136;10.366;2024-01-06T06:14:09;7.90;;;3.13;;
20431;SDS011;10375;49.136;10.366;2024-01-06T06:16:36;25.17;;;4.03;;
20431;SDS011;10375;49.136;10.366;2024-01-06T06:19:03;5.50;;;2.60;;
20431;SDS011;10375;49.136;10.366;2024-01-06T06:21:31;18.10;;;4.47;;
20431;SDS011;10375;49.136;10.366;2024-01-06T06:23:58;6.67;;;3.67;;
20431;SDS011;10375;49.136;10.366;2024-01-06T06:26:27;3.43;;;2.37;;
20431;SDS011;10375;49.136;10.366;2024-01-06T06:28:54;4.33;;;2.87;;
20431;SDS011;10375;49.136;10.366;2024-01-06T06:31:21;21.43;;;4.03;;
20431;SDS011;10375;49.136;10.366;2024-01-06T06:33:49;35.37;;;6.17;;
20431;SDS011;10375;49.136;10.366;2024-01-06T06:36:16;19.83;;;3.80;;
20431;SDS011;10375;49.136;10.366;2024-01-06T06:38:43;9.17;;;3.33;;
20431;SDS011;10375;49.136;10.366;2024-01-06T06:41:10;42.97;;;4.87;;
20431;SDS011;10375;49.136;10.366;2024-01-06T06:43:37;23.10;;;4.37;;
20431;SDS011;10375;49.136;10.366;2024-01-06T06:46:05;23.40;;;4.90;;
20431;SDS011;10375;49.136;10.366;2024-01-06T06:48:32;33.40;;;4.97;;
20431;SDS011;10375;49.136;10.366;2024-01-06T06:51:02;9.93;;;3.90;;
20431;SDS011;10375;49.136;10.366;2024-01-06T06:53:29;18.80;;;6.10;;
20431;SDS011;10375;49.136;10.366;2024-01-06T06:55:56;102.43;;;23.33;;
20431;SDS011;10375;49.136;10.366;2024-01-06T06:58:24;153.37;;;32.83;;
20431;SDS011;10375;49.136;10.366;2024-01-06T07:00:51;66.77;;;12.53;;
20431;SDS011;10375;49.136;10.366;2024-01-06T07:03:20;29.53;;;8.43;;
20431;SDS011;10375;49.136;10.366;2024-01-06T07:05:47;7.50;;;4.30;;
20431;SDS011;10375;49.136;10.366;2024-01-06T07:08:14;6.50;;;2.60;;
20431;SDS011;10375;49.136;10.366;2024-01-06T07:10:42;5.43;;;2.93;;
20431;SDS011;10375;49.136;10.366;2024-01-06T07:13:09;6.47;;;2.73;;
20431;SDS011;10375;49.136;10.366;2024-01-06T07:15:36;5.77;;;3.03;;
20431;SDS011;10375;49.136;10.366;2024-01-06T07:18:03;3.53;;;3.17;;
20431;SDS011;10375;49.136;10.366;2024-01-06T07:20:31;5.93;;;3.93;;
20431;SDS011;10375;49.136;10.366;2024-01-06T07:22:58;7.47;;;3.23;;
20431;SDS011;10375;49.136;10.366;2024-01-06T07:25:25;17.90;;;3.77;;
20431;SDS011;10375;49.136;10.366;2024-01-06T07:27:52;4.57;;;2.90;;
20431;SDS011;10375;49.136;10.366;2024-01-06T07:30:21;8.83;;;3.03;;
20431;SDS011;10375;49.136;10.366;2024-01-06T07:32:48;4.63;;;3.70;;
20431;SDS011;10375;49.136;10.366;2024-01-06T07:35:17;7.47;;;3.63;;
20431;SDS011;10375;49.136;10.366;2024-01-06T07:37:44;8.33;;;3.47;;
20431;SDS011;10375;49.136;10.366;2024-01-06T07:40:12;2.67;;;2.43;;
20431;SDS011;10375;49.136;10.366;2024-01-06T07:42:43;5.43;;;2.70;;
20431;SDS011;10375;49.136;10.366;2024-01-06T07:45:11;4.73;;;3.40;;
20431;SDS011;10375;49.136;10.366;2024-01-06T07:47:40;5.17;;;2.73;;
20431;SDS011;10375;49.136;10.366;2024-01-06T07:50:07;6.70;;;3.43;;
20431;SDS011;10375;49.136;10.366;2024-01-06T07:52:35;3.10;;;2.70;;
20431;SDS011;10375;49.136;10.366;2024-01-06T07:55:02;4.33;;;3.20;;
20431;SDS011;10375;49.136;10.366;2024-01-06T07:57:30;2.90;;;2.60;;
20431;SDS011;10375;49.136;10.366;2024-01-06T07:59:57;11.27;;;3.83;;
20431;SDS011;10375;49.136;10.366;2024-01-06T08:02:27;6.97;;;3.37;;
20431;SDS011;10375;49.136;10.366;2024-01-06T08:04:54;4.80;;;3.20;;
20431;SDS011;10375;49.136;10.366;2024-01-06T08:07:23;5.00;;;3.43;;
20431;SDS011;10375;49.136;10.366;2024-01-06T08:09:50;6.67;;;3.40;;
20431;SDS011;10375;49.136;10.366;2024-01-06T08:12:17;11.70;;;3.67;;
20431;SDS011;10375;49.136;10.366;2024-01-06T08:14:45;11.70;;;3.87;;
20431;SDS011;10375;49.136;10.366;2024-01-06T08:17:12;6.37;;;3.73;;
20431;SDS011;10375;49.136;10.366;2024-01-06T08:19:42;12.70;;;4.87;;
20431;SDS011;10375;49.136;10.366;2024-01-06T08:22:10;18.17;;;5.53;;
20431;SDS011;10375;49.136;10.366;2024-01-06T08:24:37;11.97;;;3.93;;
20431;SDS011;10375;49.136;10.366;2024-01-06T08:27:04;8.23;;;3.60;;
20431;SDS011;10375;49.136;10.366;2024-01-06T08:29:31;5.97;;;3.70;;
20431;SDS011;10375;49.136;10.366;2024-01-06T08:31:58;5.13;;;4.00;;
20431;SDS011;10375;49.136;10.366;2024-01-06T08:34:26;12.53;;;3.90;;
20431;SDS011;10375;49.136;10.366;2024-01-06T08:36:58;5.77;;;3.93;;
20431;SDS011;10375;49.136;10.366;2024-01-06T08:39:25;7.57;;;4.00;;
20431;SDS011;10375;49.136;10.366;2024-01-06T08:41:53;9.23;;;4.00;;
20431;SDS011;10375;49.136;10.366;2024-01-06T08:44:23;7.97;;;4.37;;
20431;SDS011;10375;49.136;10.366;2024-01-06T08:46:50;5.17;;;4.00;;
20431;SDS011;10375;49.136;10.366;2024-01-06T08:49:17;8.23;;;4.33;;
20431;SDS011;10375;49.136;10.366;2024-01-06T08:51:44;8.17;;;4.00;;
20431;SDS011;10375;49.136;10.366;2024-01-06T08:54:11;19.23;;;4.70;;
20431;SDS011;10375;49.136;10.366;2024-01-06T08:56:39;11.03;;;4.00;;
20431;SDS011;10375;49.136;10.366;2024-01-06T08:59:06;6.23;;;3.73;;
20431;SDS011;10375;49.136;10.366;2024-01-06T09:01:33;5.40;;;3.73;;
20431;SDS011;10375;49.136;10.366;2024-01-06T09:04:02;4.80;;;3.40;;
20431;SDS011;10375;49.136;10.366;2024-01-06T09:06:30;6.50;;;4.27;;
20431;SDS011;10375;49.136;10.366;2024-01-06T09:08:58;15.40;;;4.23;;
20431;SDS011;10375;49.136;10.366;2024-01-06T09:11:25;5.23;;;4.10;;
20431;SDS011;10375;49.136;10.366;2024-01-06T09:13:52;17.63;;;4.57;;
20431;SDS011;10375;49.136;10.366;2024-01-06T09:16:19;6.57;;;3.97;;
20431;SDS011;10375;49.136;10.366;2024-01-06T09:18:47;14.80;;;4.60;;
20431;SDS011;10375;49.136;10.366;2024-01-06T09:21:15;7.17;;;4.20;;
20431;SDS011;10375;49.136;10.366;2024-01-06T09:23:44;16.57;;;5.37;;
20431;SDS011;10375;49.136;10.366;2024-01-06T09:26:11;7.30;;;4.53;;
20431;SDS011;10375;49.136;10.366;2024-01-06T09:28:38;16.37;;;4.73;;
20431;SDS011;10375;49.136;10.366;2024-01-06T09:31:06;10.33;;;3.83;;
20431;SDS011;10375;49.136;10.366;2024-01-06T09:33:33;13.23;;;4.97;;
20431;SDS011;10375;49.136;10.366;2024-01-06T09:36:01;11.50;;;4.57;;
20431;SDS011;10375;49.136;10.366;2024-01-06T09:38:28;14.40;;;4.67;;
20431;SDS011;10375;49.136;10.366;2024-01-06T09:40:56;7.97;;;4.10;;
20431;SDS011;10375;49.136;10.366;2024-01-06T09:43:24;10.10;;;4.90;;
20431;SDS011;10375;49.136;10.366;2024-01-06T09:45:58;10.87;;;4.50;;
20431;SDS011;10375;49.136;10.366;2024-01-06T09:48:41;8.60;;;4.40;;
20431;SDS011;10375;49.136;10.366;2024-01-06T09:51:12;13.43;;;5.67;;
20431;SDS011;10375;49.136;10.366;2024-01-06T09:53:45;9.03;;;5.47;;
20431;SDS011;10375;49.136;10.366;2024-01-06T09:56:16;13.17;;;7.53;;
20431;SDS011;10375;49.136;10.366;2024-01-06T09:58:44;9.23;;;4.50;;
20431;SDS011;10375;49.136;10.366;2024-01-06T10:01:12;5.77;;;4.93;;
20431;SDS011;10375;49.136;10.366;2024-01-06T10:03:41;6.50;;;4.40;;
20431;SDS011;10375;49.136;10.366;2024-01-06T10:06:09;6.90;;;4.27;;
20431;SDS011;10375;49.136;10.366;2024-01-06T10:08:36;9.80;;;3.87;;
20431;SDS011;10375;49.136;10.366;2024-01-06T10:11:06;7.40;;;4.20;;
20431;SDS011;10375;49.136;10.366;2024-01-06T10:13:36;6.17;;;4.47;;
20431;SDS011;10375;49.136;10.366;2024-01-06T10:16:08;9.87;;;4.87;;
20431;SDS011;10375;49.136;10.366;2024-01-06T10:18:35;9.43;;;4.63;;
20431;SDS011;10375;49.136;10.366;2024-01-06T10:21:03;7.10;;;4.77;;
20431;SDS011;10375;49.136;10.366;2024-01-06T10:23:32;11.77;;;5.27;;
20431;SDS011;10375;49.136;10.366;2024-01-06T10:26:00;8.23;;;4.57;;
20431;SDS011;10375;49.136;10.366;2024-01-06T10:28:31;5.80;;;4.33;;
20431;SDS011;10375;49.136;10.366;2024-01-06T10:30:59;5.83;;;4.03;;
20431;SDS011;10375;49.136;10.366;2024-01-06T10:33:26;10.33;;;4.23;;
20431;SDS011;10375;49.136;10.366;2024-01-06T10:35:54;6.93;;;4.30;;
20431;SDS011;10375;49.136;10.366;2024-01-06T10:38:25;16.47;;;5.97;;
20431;SDS011;10375;49.136;10.366;2024-01-06T10:41:00;18.30;;;4.23;;
20431;SDS011;10375;49.136;10.366;2024-01-06T10:43:35;5.07;;;3.90;;
20431;SDS011;10375;49.136;10.366;2024-01-06T10:46:07;7.53;;;4.17;;
20431;SDS011;10375;49.136;10.366;2024-01-06T10:48:38;16.53;;;4.03;;
20431;SDS011;10375;49.136;10.366;2024-01-06T10:51:10;6.23;;;3.53;;
20431;SDS011;10375;49.136;10.366;2024-01-06T10:53:40;4.97;;;3.77;;
20431;SDS011;10375;49.136;10.366;2024-01-06T10:56:08;8.93;;;3.53;;
20431;SDS011;10375;49.136;10.366;2024-01-06T10:58:40;5.83;;;3.23;;
20431;SDS011;10375;49.136;10.366;2024-01-06T11:01:15;4.37;;;3.20;;
20431;SDS011;10375;49.136;10.366;2024-01-06T11:03:52;6.23;;;3.70;;
20431;SDS011;10375;49.136;10.366;2024-01-06T11:06:20;5.27;;;4.27;;
20431;SDS011;10375;49.136;10.366;2024-01-06T11:11:36;5.60;;;3.17;;
20431;SDS011;10375;49.136;10.366;2024-01-06T11:14:20;4.90;;;3.63;;
20431;SDS011;10375;49.136;10.366;2024-01-06T11:16:51;5.23;;;4.17;;
20431;SDS011;10375;49.136;10.366;2024-01-06T11:24:52;8.53;;;4.40;;
20431;SDS011;10375;49.136;10.366;2024-01-06T11:27:21;6.50;;;4.50;;
20431;SDS011;10375;49.136;10.366;2024-01-06T11:29:57;13.97;;;5.10;;
20431;SDS011;10375;49.136;10.366;2024-01-06T11:32:28;7.00;;;4.60;;
20431;SDS011;10375;49.136;10.366;2024-01-06T11:35:13;6.30;;;4.40;;
20431;SDS011;10375;49.136;10.366;2024-01-06T11:45:35;10.67;;;5.27;;
20431;SDS011;10375;49.136;10.366;2024-01-06T11:48:07;6.87;;;4.40;;
20431;SDS011;10375;49.136;10.366;2024-01-06T11:50:37;6.03;;;4.27;;
20431;SDS011;10375;49.136;10.366;2024-01-06T11:53:05;6.33;;;4.63;;
20431;SDS011;10375;49.136;10.366;2024-01-06T11:55:33;11.50;;;5.00;;
20431;SDS011;10375;49.136;10.366;2024-01-06T11:58:01;6.23;;;4.93;;
20431;SDS011;10375;49.136;10.366;2024-01-06T12:00:31;8.33;;;4.47;;
20431;SDS011;10375;49.136;10.366;2024-01-06T12:03:05;5.97;;;4.63;;
20431;SDS011;10375;49.136;10.366;2024-01-06T12:05:32;6.60;;;4.10;;
20431;SDS011;10375;49.136;10.366;2024-01-06T12:08:00;6.83;;;4.73;;
20431;SDS011;10375;49.136;10.366;2024-01-06T12:10:28;11.33;;;4.80;;
20431;SDS011;10375;49.136;10.366;2024-01-06T12:13:00;5.17;;;4.33;;
20431;SDS011;10375;49.136;10.366;2024-01-06T12:15:31;5.80;;;4.47;;
20431;SDS011;10375;49.136;10.366;2024-01-06T12:18:02;7.53;;;4.10;;
20431;SDS011;10375;49.136;10.366;2024-01-06T12:20:30;4.27;;;3.87;;
20431;SDS011;10375;49.136;10.366;2024-01-06T12:22:58;6.60;;;4.77;;
20431;SDS011;10375;49.136;10.366;2024-01-06T12:25:27;6.20;;;4.57;;
20431;SDS011;10375;49.136;10.366;2024-01-06T12:27:55;6.13;;;4.97;;
20431;SDS011;10375;49.136;10.366;2024-01-06T12:30:23;5.37;;;4.20;;
20431;SDS011;10375;49.136;10.366;2024-01-06T12:32:51;6.90;;;5.17;;
20431;SDS011;10375;49.136;10.366;2024-01-06T12:35:21;4.30;;;3.67;;
20431;SDS011;10375;49.136;10.366;2024-01-06T12:37:49;8.73;;;5.20;;
20431;SDS011;10375;49.136;10.366;2024-01-06T12:40:18;5.67;;;4.17;;
20431;SDS011;10375;49.136;10.366;2024-01-06T12:42:48;7.37;;;4.83;;
20431;SDS011;10375;49.136;10.366;2024-01-06T12:45:15;10.07;;;5.03;;
20431;SDS011;10375;49.136;10.366;2024-01-06T12:47:43;4.50;;;3.90;;
20431;SDS011;10375;49.136;10.366;2024-01-06T12:50:11;5.93;;;4.10;;
20431;SDS011;10375;49.136;10.366;2024-01-06T12:52:38;5.50;;;4.17;;
20431;SDS011;10375;49.136;10.366;2024-01-06T12:55:06;6.80;;;4.00;;
20431;SDS011;10375;49.136;10.366;2024-01-06T12:57:34;6.00;;;4.30;;
20431;SDS011;10375;49.136;10.366;2024-01-06T13:00:02;6.27;;;3.77;;
20431;SDS011;10375;49.136;10.366;2024-01-06T13:02:32;10.03;;;4.20;;
20431;SDS011;10375;49.136;10.366;2024-01-06T13:04:59;7.80;;;4.23;;
20431;SDS011;10375;49.136;10.366;2024-01-06T13:07:26;5.57;;;4.27;;
20431;SDS011;10375;49.136;10.366;2024-01-06T13:09:53;6.20;;;3.87;;
20431;SDS011;10375;49.136;10.366;2024-01-06T13:12:21;6.07;;;4.50;;
20431;SDS011;10375;49.136;10.366;2024-01-06T13:14:50;6.63;;;3.97;;
20431;SDS011;10375;49.136;10.366;2024-01-06T13:17:17;6.43;;;4.20;;
20431;SDS011;10375;49.136;10.366;2024-01-06T13:19:44;4.93;;;4.03;;
20431;SDS011;10375;49.136;10.366;2024-01-06T13:22:12;7.07;;;4.10;;
20431;SDS011;10375;49.136;10.366;2024-01-06T13:24:41;6.27;;;4.50;;
20431;SDS011;10375;49.136;10.366;2024-01-06T13:27:08;5.50;;;3.90;;
20431;SDS011;10375;49.136;10.366;2024-01-06T13:29:35;5.80;;;4.23;;
20431;SDS011;10375;49.136;10.366;2024-01-06T13:32:03;9.93;;;4.93;;
20431;SDS011;10375;49.136;10.366;2024-01-06T13:34:32;11.83;;;4.87;;
20431;SDS011;10375;49.136;10.366;2024-01-06T13:36:59;5.63;;;4.23;;
20431;SDS011;10375;49.136;10.366;2024-01-06T13:39:26;11.03;;;4.47;;
20431;SDS011;10375;49.136;10.366;2024-01-06T13:41:55;10.60;;;5.23;;
20431;SDS011;10375;49.136;10.366;2024-01-06T13:44:22;5.97;;;4.53;;
20431;SDS011;10375;49.136;10.366;2024-01-06T13:46:49;5.90;;;4.57;;
20431;SDS011;10375;49.136;10.366;2024-01-06T13:49:17;12.30;;;4.83;;
20431;SDS011;10375;49.136;10.366;2024-01-06T13:51:45;8.90;;;4.57;;
20431;SDS011;10375;49.136;10.366;2024-01-06T13:54:13;7.77;;;4.73;;
20431;SDS011;10375;49.136;10.366;2024-01-06T13:56:43;6.23;;;4.80;;
20431;SDS011;10375;49.136;10.366;2024-01-06T13:59:11;11.43;;;5.20;;
20431;SDS011;10375;49.136;10.366;2024-01-06T14:01:38;7.80;;;4.40;;
20431;SDS011;10375;49.136;10.366;2024-01-06T14:04:05;15.07;;;5.07;;
20431;SDS011;10375;49.136;10.366;2024-01-06T14:06:33;6.10;;;4.57;;
20431;SDS011;10375;49.136;10.366;2024-01-06T14:09:01;93.63;;;10.47;;
20431;SDS011;10375;49.136;10.366;2024-01-06T14:11:28;35.63;;;6.30;;
20431;SDS011;10375;49.136;10.366;2024-01-06T14:13:57;13.57;;;4.93;;
20431;SDS011;10375;49.136;10.366;2024-01-06T14:16:25;25.57;;;4.93;;
20431;SDS011;10375;49.136;10.366;2024-01-06T14:18:52;8.33;;;5.07;;
20431;SDS011;10375;49.136;10.366;2024-01-06T14:21:20;10.00;;;4.20;;
20431;SDS011;10375;49.136;10.366;2024-01-06T14:23:47;9.10;;;4.40;;
20431;SDS011;10375;49.136;10.366;2024-01-06T14:26:19;13.87;;;5.13;;
20431;SDS011;10375;49.136;10.366;2024-01-06T14:28:47;6.10;;;4.27;;
20431;SDS011;10375;49.136;10.366;2024-01-06T14:31:15;5.00;;;4.33;;
20431;SDS011;10375;49.136;10.366;2024-01-06T14:33:42;17.63;;;4.80;;
20431;SDS011;10375;49.136;10.366;2024-01-06T14:36:10;4.70;;;4.23;;
20431;SDS011;10375;49.136;10.366;2024-01-06T14:38:37;13.60;;;5.30;;
20431;SDS011;10375;49.136;10.366;2024-01-06T14:41:05;6.03;;;4.77;;
20431;SDS011;10375;49.136;10.366;2024-01-06T14:43:32;8.60;;;4.57;;
20431;SDS011;10375;49.136;10.366;2024-01-06T14:45:59;10.90;;;5.03;;
20431;SDS011;10375;49.136;10.366;2024-01-06T14:48:27;9.87;;;4.27;;
20431;SDS011;10375;49.136;10.366;2024-01-06T14:50:54;11.20;;;4.93;;